PWSweather.com
Personal Weather Stations
Station Observations
METEOC500
Santo Antonio, FunchalPT 2020

Santo AntonioFunchalPT 2020

Lat: 32.678227, Lon: -16.945054

Elevation: 1669.94751

Station Type: WH Series

High Low Average
Temperature 66.2°F19.0°F 54.5°F12.5°F 59.2°F15.1°F
Dew Point 59.2°F15.1°F 46.0°F7.8°F 53.4°F11.9°F
Winds 7.6 mph -12.2 mph - Calm Calm 2.5 mph 4.0 mph
Wind Gusts 12.5 mph20.1 mph 2.5 mph4.0 mph 7.5 mph12.1 mph
Humidity 96% 70% 81%
Pressure 30.45 in1031.20 in 30.37 in1028.40 in -
Precipitation 0.08 in2.00 in - -
Hour Temp Dew Point Humidity Winds Wind Gusts Pressure Precip Precip Rate Daily Precip Total
12:13 AM 55.9°F13.3°C 50.5°F10.3°C 82% 4.5 mph N7.2 kmh N 7.6 mph12.2 kmh 30.41 in1029.8 mb 0.00 in0.0 mm 0.00 in0.0 mm 0.00 in0.0 mm
12:29 AM 55.9°F13.3°C 50.2°F10.1°C 81% 3.1 mph NNW5.0 kmh NNW 7.6 mph12.2 kmh 30.41 in1029.8 mb 0.00 in0.0 mm 0.00 in0.0 mm 0.00 in0.0 mm
12:44 AM 55.4°F13.0°C 48.0°F8.9°C 76% 4.5 mph NNW7.2 kmh NNW 7.6 mph12.2 kmh 30.40 in1029.5 mb 0.00 in0.0 mm 0.00 in0.0 mm 0.00 in0.0 mm
12:59 AM 55.2°F12.9°C 46.0°F7.8°C 71% 2.2 mph NNW3.5 kmh NNW 10.1 mph16.3 kmh 30.40 in1029.5 mb 0.00 in0.0 mm 0.00 in0.0 mm 0.00 in0.0 mm
01:14 AM 55.4°F13.0°C 48.4°F9.1°C 77% 4.7 mph NNW7.6 kmh NNW 10.1 mph16.3 kmh 30.40 in1029.5 mb 0.00 in0.0 mm 0.00 in0.0 mm 0.00 in0.0 mm
01:29 AM 55.2°F12.9°C 49.5°F9.7°C 81% 4.5 mph NW7.2 kmh NW 7.6 mph12.2 kmh 30.40 in1029.5 mb 0.00 in0.0 mm 0.00 in0.0 mm 0.00 in0.0 mm
01:44 AM 55.2°F12.9°C 47.5°F8.6°C 75% 3.1 mph NNW5.0 kmh NNW 7.6 mph12.2 kmh 30.40 in1029.5 mb 0.00 in0.0 mm 0.00 in0.0 mm 0.00 in0.0 mm
01:59 AM 55.4°F13.0°C 48.4°F9.1°C 77% 2.9 mph NW4.7 kmh NW 7.6 mph12.2 kmh 30.39 in1029.1 mb 0.00 in0.0 mm 0.00 in0.0 mm 0.00 in0.0 mm
02:14 AM 55.4°F13.0°C 47.7°F8.7°C 75% 3.8 mph NW6.1 kmh NW 7.6 mph12.2 kmh 30.40 in1029.5 mb 0.00 in0.0 mm 0.00 in0.0 mm 0.00 in0.0 mm
02:29 AM 55.4°F13.0°C 47.3°F8.5°C 74% 3.1 mph NNW5.0 kmh NNW 7.6 mph12.2 kmh 30.40 in1029.5 mb 0.00 in0.0 mm 0.00 in0.0 mm 0.00 in0.0 mm
02:44 AM 55.4°F13.0°C 46.2°F7.9°C 71% Calm Calm 10.1 mph16.3 kmh 30.39 in1029.1 mb 0.00 in0.0 mm 0.00 in0.0 mm 0.00 in0.0 mm
02:59 AM 55.4°F13.0°C 47.3°F8.5°C 74% 5.6 mph NNW9.0 kmh NNW 10.1 mph16.3 kmh 30.39 in1029.1 mb 0.00 in0.0 mm 0.00 in0.0 mm 0.00 in0.0 mm
03:14 AM 55.6°F13.1°C 46.8°F8.2°C 72% 1.6 mph N2.6 kmh N 7.6 mph12.2 kmh 30.39 in1029.1 mb 0.00 in0.0 mm 0.00 in0.0 mm 0.00 in0.0 mm
03:29 AM 55.8°F13.2°C 46.9°F8.3°C 72% 1.6 mph NNW2.6 kmh NNW 7.6 mph12.2 kmh 30.38 in1028.8 mb 0.00 in0.0 mm 0.00 in0.0 mm 0.00 in0.0 mm
03:44 AM 55.9°F13.3°C 46.8°F8.2°C 71% 3.4 mph NW5.5 kmh NW 7.6 mph12.2 kmh 30.38 in1028.8 mb 0.00 in0.0 mm 0.00 in0.0 mm 0.00 in0.0 mm
03:59 AM 56.1°F13.4°C 47.3°F8.5°C 72% 4.5 mph NNW7.2 kmh NNW 10.1 mph16.3 kmh 30.39 in1029.1 mb 0.00 in0.0 mm 0.00 in0.0 mm 0.00 in0.0 mm
04:14 AM 56.1°F13.4°C 46.8°F8.2°C 71% 2.5 mph NNW4.0 kmh NNW 10.1 mph16.3 kmh 30.38 in1028.8 mb 0.00 in0.0 mm 0.00 in0.0 mm 0.00 in0.0 mm
04:29 AM 55.9°F13.3°C 47.1°F8.4°C 72% 3.1 mph NW5.0 kmh NW 7.6 mph12.2 kmh 30.38 in1028.8 mb 0.00 in0.0 mm 0.00 in0.0 mm 0.00 in0.0 mm
04:44 AM 55.9°F13.3°C 46.8°F8.2°C 71% 2.2 mph NW3.5 kmh NW 10.1 mph16.3 kmh 30.38 in1028.8 mb 0.00 in0.0 mm 0.00 in0.0 mm 0.00 in0.0 mm
05:00 AM 55.8°F13.2°C 46.9°F8.3°C 72% 3.4 mph NNW5.5 kmh NNW 7.6 mph12.2 kmh 30.38 in1028.8 mb 0.00 in0.0 mm 0.00 in0.0 mm 0.00 in0.0 mm
05:15 AM 55.8°F13.2°C 46.9°F8.3°C 72% 4.7 mph NW7.6 kmh NW 7.6 mph12.2 kmh 30.38 in1028.8 mb 0.00 in0.0 mm 0.00 in0.0 mm 0.00 in0.0 mm
05:30 AM 55.6°F13.1°C 47.1°F8.4°C 73% 2.5 mph NNW4.0 kmh NNW 10.1 mph16.3 kmh 30.38 in1028.8 mb 0.00 in0.0 mm 0.00 in0.0 mm 0.00 in0.0 mm
05:45 AM 55.4°F13.0°C 47.3°F8.5°C 74% 3.1 mph NNW5.0 kmh NNW 10.1 mph16.3 kmh 30.39 in1029.1 mb 0.00 in0.0 mm 0.00 in0.0 mm 0.00 in0.0 mm
06:00 AM 55.4°F13.0°C 47.3°F8.5°C 74% 4.5 mph NNW7.2 kmh NNW 10.1 mph16.3 kmh 30.40 in1029.5 mb 0.00 in0.0 mm 0.00 in0.0 mm 0.00 in0.0 mm
06:15 AM 55.4°F13.0°C 47.7°F8.7°C 75% 3.4 mph NNW5.5 kmh NNW 7.6 mph12.2 kmh 30.40 in1029.5 mb 0.00 in0.0 mm 0.00 in0.0 mm 0.00 in0.0 mm
06:30 AM 55.2°F12.9°C 47.5°F8.6°C 75% 3.1 mph NNW5.0 kmh NNW 7.6 mph12.2 kmh 30.40 in1029.5 mb 0.00 in0.0 mm 0.00 in0.0 mm 0.00 in0.0 mm
06:45 AM 54.9°F12.7°C 47.1°F8.4°C 75% 4.7 mph NNW7.6 kmh NNW 7.6 mph12.2 kmh 30.40 in1029.5 mb 0.00 in0.0 mm 0.00 in0.0 mm 0.00 in0.0 mm
07:00 AM 54.9°F12.7°C 47.8°F8.8°C 77% 2.9 mph N4.7 kmh N 7.6 mph12.2 kmh 30.41 in1029.8 mb 0.00 in0.0 mm 0.00 in0.0 mm 0.00 in0.0 mm
07:15 AM 54.5°F12.5°C 48.2°F9.0°C 79% 4.5 mph NNW7.2 kmh NNW 10.1 mph16.3 kmh 30.41 in1029.8 mb 0.00 in0.0 mm 0.00 in0.0 mm 0.00 in0.0 mm
07:30 AM 54.5°F12.5°C 47.8°F8.8°C 78% 5.4 mph NW8.7 kmh NW 7.6 mph12.2 kmh 30.42 in1030.1 mb 0.00 in0.0 mm 0.00 in0.0 mm 0.00 in0.0 mm
07:45 AM 55.0°F12.8°C 47.7°F8.7°C 76% 3.4 mph NW5.5 kmh NW 10.1 mph16.3 kmh 30.42 in1030.1 mb 0.00 in0.0 mm 0.00 in0.0 mm 0.00 in0.0 mm
08:00 AM 55.2°F12.9°C 47.8°F8.8°C 76% 3.8 mph NNW6.1 kmh NNW 7.6 mph12.2 kmh 30.42 in1030.1 mb 0.00 in0.0 mm 0.00 in0.0 mm 0.00 in0.0 mm
08:15 AM 55.2°F12.9°C 48.2°F9.0°C 77% 3.4 mph NNW5.5 kmh NNW 10.1 mph16.3 kmh 30.42 in1030.1 mb 0.00 in0.0 mm 0.00 in0.0 mm 0.00 in0.0 mm
08:30 AM 55.2°F12.9°C 47.8°F8.8°C 76% 7.2 mph N11.6 kmh N 7.6 mph12.2 kmh 30.42 in1030.1 mb 0.00 in0.0 mm 0.00 in0.0 mm 0.00 in0.0 mm
08:45 AM 55.8°F13.2°C 48.4°F9.1°C 76% 4.9 mph N7.9 kmh N 10.1 mph16.3 kmh 30.42 in1030.1 mb 0.00 in0.0 mm 0.00 in0.0 mm 0.00 in0.0 mm
09:00 AM 56.7°F13.7°C 49.5°F9.7°C 77% 4.7 mph N7.6 kmh N 7.6 mph12.2 kmh 30.43 in1030.5 mb 0.00 in0.0 mm 0.00 in0.0 mm 0.00 in0.0 mm
09:15 AM 57.4°F14.1°C 50.9°F10.5°C 79% 3.8 mph N6.1 kmh N 7.6 mph12.2 kmh 30.43 in1030.5 mb 0.00 in0.0 mm 0.00 in0.0 mm 0.00 in0.0 mm
09:30 AM 58.3°F14.6°C 52.2°F11.2°C 80% 1.8 mph N2.9 kmh N 4.9 mph7.9 kmh 30.43 in1030.5 mb 0.00 in0.0 mm 0.00 in0.0 mm 0.00 in0.0 mm
09:45 AM 59.4°F15.2°C 52.9°F11.6°C 79% 1.3 mph N2.1 kmh N 4.9 mph7.9 kmh 30.44 in1030.8 mb 0.00 in0.0 mm 0.00 in0.0 mm 0.00 in0.0 mm
10:01 AM 61.5°F16.4°C 52.7°F11.5°C 73% Calm Calm 2.5 mph4.0 kmh 30.44 in1030.8 mb 0.00 in0.0 mm 0.00 in0.0 mm 0.00 in0.0 mm
10:16 AM 64.0°F17.8°C 54.1°F12.3°C 70% 0.2 mph SSE0.3 kmh SSE 2.5 mph4.0 kmh 30.44 in1030.8 mb 0.00 in0.0 mm 0.00 in0.0 mm 0.00 in0.0 mm
10:31 AM 64.9°F18.3°C 55.8°F13.2°C 72% 1.6 mph S2.6 kmh S 7.6 mph12.2 kmh 30.44 in1030.8 mb 0.00 in0.0 mm 0.00 in0.0 mm 0.00 in0.0 mm
10:46 AM 64.4°F18.0°C 55.9°F13.3°C 74% 2.5 mph SE4.0 kmh SE 10.1 mph16.3 kmh 30.45 in1031.2 mb 0.00 in0.0 mm 0.00 in0.0 mm 0.00 in0.0 mm
11:01 AM 63.9°F17.7°C 56.5°F13.6°C 77% 2.9 mph SE4.7 kmh SE 10.1 mph16.3 kmh 30.45 in1031.2 mb 0.00 in0.0 mm 0.00 in0.0 mm 0.00 in0.0 mm
11:16 AM 63.9°F17.7°C 56.5°F13.6°C 77% Calm Calm 7.6 mph12.2 kmh 30.45 in1031.2 mb 0.00 in0.0 mm 0.00 in0.0 mm 0.00 in0.0 mm
11:31 AM 64.4°F18.0°C 56.7°F13.7°C 76% 0.7 mph W1.1 kmh W 7.6 mph12.2 kmh 30.44 in1030.8 mb 0.00 in0.0 mm 0.00 in0.0 mm 0.00 in0.0 mm
11:46 AM 65.1°F18.4°C 57.4°F14.1°C 76% 2.9 mph S4.7 kmh S 7.6 mph12.2 kmh 30.44 in1030.8 mb 0.00 in0.0 mm 0.00 in0.0 mm 0.00 in0.0 mm
12:01 PM 65.7°F18.7°C 58.3°F14.6°C 77% 0.9 mph E1.4 kmh E 7.6 mph12.2 kmh 30.43 in1030.5 mb 0.00 in0.0 mm 0.00 in0.0 mm 0.00 in0.0 mm
12:16 PM 65.3°F18.5°C 57.9°F14.4°C 77% 7.6 mph ESE12.2 kmh ESE 10.1 mph16.3 kmh 30.42 in1030.1 mb 0.00 in0.0 mm 0.00 in0.0 mm 0.00 in0.0 mm
12:31 PM 64.4°F18.0°C 57.4°F14.1°C 78% 2.2 mph S3.5 kmh S 10.1 mph16.3 kmh 30.42 in1030.1 mb 0.00 in0.0 mm 0.00 in0.0 mm 0.00 in0.0 mm
12:46 PM 64.4°F18.0°C 57.7°F14.3°C 79% 7.6 mph SSW12.2 kmh SSW 12.5 mph20.1 kmh 30.40 in1029.5 mb 0.00 in0.0 mm 0.00 in0.0 mm 0.00 in0.0 mm
01:01 PM 64.9°F18.3°C 58.3°F14.6°C 79% 6.9 mph SW11.1 kmh SW 10.1 mph16.3 kmh 30.40 in1029.5 mb 0.00 in0.0 mm 0.00 in0.0 mm 0.00 in0.0 mm
01:16 PM 64.8°F18.2°C 58.8°F14.9°C 81% 2.9 mph SSW4.7 kmh SSW 10.1 mph16.3 kmh 30.40 in1029.5 mb 0.00 in0.0 mm 0.00 in0.0 mm 0.00 in0.0 mm
01:31 PM 64.6°F18.1°C 57.2°F14.0°C 77% 2.5 mph ESE4.0 kmh ESE 12.5 mph20.1 kmh 30.39 in1029.1 mb 0.00 in0.0 mm 0.00 in0.0 mm 0.00 in0.0 mm
01:46 PM 64.4°F18.0°C 57.7°F14.3°C 79% 4.5 mph SE7.2 kmh SE 10.1 mph16.3 kmh 30.38 in1028.8 mb 0.00 in0.0 mm 0.00 in0.0 mm 0.00 in0.0 mm
02:01 PM 64.4°F18.0°C 57.0°F13.9°C 77% 1.8 mph E2.9 kmh E 10.1 mph16.3 kmh 30.37 in1028.4 mb 0.00 in0.0 mm 0.00 in0.0 mm 0.00 in0.0 mm
02:16 PM 65.1°F18.4°C 56.7°F13.7°C 74% 2.5 mph SW4.0 kmh SW 7.6 mph12.2 kmh 30.37 in1028.4 mb 0.00 in0.0 mm 0.00 in0.0 mm 0.00 in0.0 mm
02:31 PM 66.2°F19.0°C 58.1°F14.5°C 75% 4.5 mph SSE7.2 kmh SSE 7.6 mph12.2 kmh 30.37 in1028.4 mb 0.00 in0.0 mm 0.00 in0.0 mm 0.00 in0.0 mm
02:47 PM 66.2°F19.0°C 58.5°F14.7°C 76% 3.8 mph SSE6.1 kmh SSE 7.6 mph12.2 kmh 30.37 in1028.4 mb 0.00 in0.0 mm 0.00 in0.0 mm 0.00 in0.0 mm
03:02 PM 65.7°F18.7°C 57.9°F14.4°C 76% Calm Calm 10.1 mph16.3 kmh 30.37 in1028.4 mb 0.00 in0.0 mm 0.00 in0.0 mm 0.00 in0.0 mm
03:17 PM 65.7°F18.7°C 58.3°F14.6°C 77% 1.8 mph SSE2.9 kmh SSE 10.1 mph16.3 kmh 30.37 in1028.4 mb 0.00 in0.0 mm 0.00 in0.0 mm 0.00 in0.0 mm
03:32 PM 65.3°F18.5°C 57.9°F14.4°C 77% 3.4 mph SE5.5 kmh SE 10.1 mph16.3 kmh 30.38 in1028.8 mb 0.00 in0.0 mm 0.00 in0.0 mm 0.00 in0.0 mm
03:47 PM 65.3°F18.5°C 57.6°F14.2°C 76% 4.0 mph SSE6.4 kmh SSE 7.6 mph12.2 kmh 30.37 in1028.4 mb 0.00 in0.0 mm 0.00 in0.0 mm 0.00 in0.0 mm
04:02 PM 65.5°F18.6°C 59.2°F15.1°C 80% 0.7 mph SSE1.1 kmh SSE 10.1 mph16.3 kmh 30.38 in1028.8 mb 0.00 in0.0 mm 0.00 in0.0 mm 0.00 in0.0 mm
04:17 PM 64.8°F18.2°C 58.5°F14.7°C 80% 3.8 mph S6.1 kmh S 12.5 mph20.1 kmh 30.38 in1028.8 mb 0.00 in0.0 mm 0.00 in0.0 mm 0.00 in0.0 mm
04:32 PM 63.9°F17.7°C 59.2°F15.1°C 85% 3.4 mph SE5.5 kmh SE 10.1 mph16.3 kmh 30.39 in1029.1 mb 0.00 in0.0 mm 0.00 in0.0 mm 0.00 in0.0 mm
04:47 PM 62.6°F17.0°C 58.6°F14.8°C 87% 3.4 mph SSE5.5 kmh SSE 7.6 mph12.2 kmh 30.39 in1029.1 mb 0.00 in0.0 mm 0.00 in0.0 mm 0.00 in0.0 mm
05:02 PM 62.1°F16.7°C 58.1°F14.5°C 87% 1.8 mph SSE2.9 kmh SSE 7.6 mph12.2 kmh 30.38 in1028.8 mb 0.00 in0.0 mm 0.00 in0.0 mm 0.00 in0.0 mm
05:17 PM 61.3°F16.3°C 57.4°F14.1°C 87% Calm Calm 7.6 mph12.2 kmh 30.39 in1029.1 mb 0.00 in0.0 mm 0.00 in0.0 mm 0.00 in0.0 mm
05:32 PM 61.2°F16.2°C 57.6°F14.2°C 88% Calm Calm 4.9 mph7.9 kmh 30.40 in1029.5 mb 0.00 in0.0 mm 0.00 in0.0 mm 0.00 in0.0 mm
05:47 PM 61.0°F16.1°C 57.7°F14.3°C 89% 1.6 mph SSW2.6 kmh SSW 4.9 mph7.9 kmh 30.40 in1029.5 mb 0.00 in0.0 mm 0.00 in0.0 mm 0.00 in0.0 mm
06:02 PM 60.4°F15.8°C 57.7°F14.3°C 91% Calm Calm 2.5 mph4.0 kmh 30.39 in1029.1 mb 0.00 in0.0 mm 0.00 in0.0 mm 0.00 in0.0 mm
06:17 PM 59.9°F15.5°C 57.6°F14.2°C 92% Calm Calm 2.5 mph4.0 kmh 30.40 in1029.5 mb 0.01 in0.3 mm 0.04 in1.0 mm 0.01 in0.3 mm
06:32 PM 59.7°F15.4°C 57.7°F14.3°C 93% Calm Calm 2.5 mph4.0 kmh 30.39 in1029.1 mb 0.01 in0.3 mm 0.00 in0.0 mm 0.01 in0.3 mm
06:47 PM 59.5°F15.3°C 57.6°F14.2°C 93% 0.2 mph NE0.3 kmh NE 7.6 mph12.2 kmh 30.40 in1029.5 mb 0.01 in0.3 mm 0.00 in0.0 mm 0.01 in0.3 mm
07:02 PM 59.4°F15.2°C 57.6°F14.2°C 94% Calm Calm 4.9 mph7.9 kmh 30.40 in1029.5 mb 0.01 in0.3 mm 0.00 in0.0 mm 0.01 in0.3 mm
07:18 PM 59.2°F15.1°C 57.7°F14.3°C 95% Calm Calm 2.5 mph4.0 kmh 30.41 in1029.8 mb 0.01 in0.3 mm 0.00 in0.0 mm 0.02 in0.5 mm
07:33 PM 59.2°F15.1°C 57.7°F14.3°C 95% Calm Calm 4.9 mph7.9 kmh 30.41 in1029.8 mb 0.01 in0.3 mm 0.00 in0.0 mm 0.02 in0.5 mm
07:48 PM 59.0°F15.0°C 57.6°F14.2°C 95% Calm Calm 2.5 mph4.0 kmh 30.41 in1029.8 mb 0.01 in0.3 mm 0.00 in0.0 mm 0.02 in0.5 mm
08:03 PM 59.0°F15.0°C 57.6°F14.2°C 95% Calm Calm 4.9 mph7.9 kmh 30.42 in1030.1 mb 0.01 in0.3 mm 0.00 in0.0 mm 0.02 in0.5 mm
08:18 PM 58.8°F14.9°C 57.7°F14.3°C 96% Calm Calm 2.5 mph4.0 kmh 30.42 in1030.1 mb 0.00 in0.0 mm 0.00 in0.0 mm 0.02 in0.5 mm
08:33 PM 58.8°F14.9°C 57.7°F14.3°C 96% Calm Calm 4.9 mph7.9 kmh 30.42 in1030.1 mb 0.00 in0.0 mm 0.00 in0.0 mm 0.02 in0.5 mm
08:48 PM 58.6°F14.8°C 57.6°F14.2°C 96% 2.9 mph NNE4.7 kmh NNE 4.9 mph7.9 kmh 30.43 in1030.5 mb 0.00 in0.0 mm 0.00 in0.0 mm 0.02 in0.5 mm
09:03 PM 58.3°F14.6°C 57.2°F14.0°C 96% 0.7 mph NNW1.1 kmh NNW 4.9 mph7.9 kmh 30.42 in1030.1 mb 0.00 in0.0 mm 0.00 in0.0 mm 0.02 in0.5 mm
09:18 PM 58.1°F14.5°C 57.0°F13.9°C 96% Calm Calm 2.5 mph4.0 kmh 30.42 in1030.1 mb 0.00 in0.0 mm 0.00 in0.0 mm 0.02 in0.5 mm
09:33 PM 58.1°F14.5°C 57.0°F13.9°C 96% 0.7 mph SSW1.1 kmh SSW 4.9 mph7.9 kmh 30.44 in1030.8 mb 0.00 in0.0 mm 0.00 in0.0 mm 0.02 in0.5 mm
09:48 PM 57.6°F14.2°C 56.5°F13.6°C 96% Calm Calm 4.9 mph7.9 kmh 30.43 in1030.5 mb 0.00 in0.0 mm 0.00 in0.0 mm 0.02 in0.5 mm
10:03 PM 57.0°F13.9°C 55.9°F13.3°C 96% Calm Calm 7.6 mph12.2 kmh 30.44 in1030.8 mb 0.00 in0.0 mm 0.00 in0.0 mm 0.02 in0.5 mm
10:19 PM 57.0°F13.9°C 55.9°F13.3°C 96% 2.5 mph SW4.0 kmh SW 4.9 mph7.9 kmh 30.44 in1030.8 mb 0.00 in0.0 mm 0.00 in0.0 mm 0.02 in0.5 mm
10:34 PM 56.7°F13.7°C 55.6°F13.1°C 96% Calm Calm 4.9 mph7.9 kmh 30.44 in1030.8 mb 0.00 in0.0 mm 0.00 in0.0 mm 0.02 in0.5 mm
10:49 PM 56.5°F13.6°C 55.4°F13.0°C 96% Calm Calm 7.6 mph12.2 kmh 30.45 in1031.2 mb 0.00 in0.0 mm 0.00 in0.0 mm 0.02 in0.5 mm
11:04 PM 56.3°F13.5°C 55.2°F12.9°C 96% 3.1 mph NW5.0 kmh NW 4.9 mph7.9 kmh 30.45 in1031.2 mb 0.00 in0.0 mm 0.00 in0.0 mm 0.02 in0.5 mm
11:19 PM 55.9°F13.3°C 54.5°F12.5°C 95% 2.2 mph NW3.5 kmh NW 4.9 mph7.9 kmh 30.45 in1031.2 mb 0.00 in0.0 mm 0.00 in0.0 mm 0.02 in0.5 mm
11:34 PM 55.6°F13.1°C 54.1°F12.3°C 95% 3.1 mph NW5.0 kmh NW 7.6 mph12.2 kmh 30.45 in1031.2 mb 0.00 in0.0 mm 0.00 in0.0 mm 0.02 in0.5 mm
11:49 PM 55.0°F12.8°C 53.4°F11.9°C 94% 3.1 mph NW5.0 kmh NW 7.6 mph12.2 kmh 30.45 in1031.2 mb 0.00 in0.0 mm 0.00 in0.0 mm 0.02 in0.5 mm